Time;durP1;ratioP1;P1;durP2;ratioP2;P2;SDS_P1;SDS_P2;PMS_P1;PMS_P2;Temp;Humidity;BMP_temperature;BMP_pressure;BME280_temperature;BME280_humidity;BME280_pressure;Samples;Min_cycle;Max_cycle;Signal;HPM_P1;HPM_P2
2022/05/15 00:02:06;;;;;;;13.38;6.20;;;11.50;82.70;;;;;;5037073;28;20052;-76
2022/05/15 00:04:32;;;;;;;10.15;5.22;;;11.50;82.50;;;;;;5037060;28;20041;-73
2022/05/15 00:06:57;;;;;;;20.15;7.20;;;11.50;82.60;;;;;;5036941;28;20040;-75
2022/05/15 00:09:23;;;;;;;12.77;5.97;;;11.40;82.60;;;;;;5037274;28;20098;-75
2022/05/15 00:11:49;;;;;;;16.65;6.40;;;11.40;82.70;;;;;;5020745;28;20369;-74
2022/05/15 00:14:16;;;;;;;24.67;7.78;;;11.30;82.90;;;;;;5036965;28;20055;-75
2022/05/15 00:16:41;;;;;;;19.88;7.38;;;11.20;82.90;;;;;;5036647;28;20542;-74
2022/05/15 00:19:07;;;;;;;22.35;9.20;;;11.10;83.00;;;;;;5004057;28;20132;-74
2022/05/15 00:21:33;;;;;;;18.88;7.63;;;11.10;83.20;;;;;;5036734;28;20041;-73
2022/05/15 00:23:59;;;;;;;17.10;9.55;;;11.10;83.60;;;;;;5036650;28;20041;-75
2022/05/15 00:26:26;;;;;;;16.55;7.75;;;11.10;83.50;;;;;;5036617;28;20044;-74
2022/05/15 00:28:52;;;;;;;11.40;6.78;;;11.00;83.60;;;;;;5036610;28;20076;-75
2022/05/15 00:31:18;;;;;;;19.00;7.75;;;11.10;84.10;;;;;;5036487;28;20126;-74
2022/05/15 00:33:44;;;;;;;18.98;7.38;;;11.10;84.10;;;;;;5037188;28;20037;-75
2022/05/15 00:36:11;;;;;;;20.63;8.23;;;11.10;83.90;;;;;;5036906;28;20048;-75
2022/05/15 00:38:36;;;;;;;22.77;8.23;;;11.10;84.10;;;;;;5020792;28;20370;-76
2022/05/15 00:41:03;;;;;;;24.55;10.73;;;11.10;83.80;;;;;;5036830;28;20120;-76
2022/05/15 00:43:42;;;;;;;23.10;8.88;;;11.10;83.90;;;;;;5036846;28;20044;-76
2022/05/15 00:46:31;;;;;;;26.45;9.88;;;11.10;84.20;;;;;;5036867;28;20382;-76
2022/05/15 00:48:59;;;;;;;21.27;8.93;;;11.10;83.90;;;;;;5035768;28;20057;-73
2022/05/15 00:51:48;;;;;;;17.98;6.85;;;11.00;83.80;;;;;;5036626;28;20056;-75
2022/05/15 00:54:32;;;;;;;19.05;8.73;;;11.00;84.00;;;;;;5036732;28;20041;-73
2022/05/15 00:57:03;;;;;;;21.33;8.63;;;10.90;84.10;;;;;;5036492;28;20045;-73
2022/05/15 00:59:37;;;;;;;24.67;8.77;;;11.00;84.10;;;;;;5020034;28;20037;-75
2022/05/15 01:02:03;;;;;;;15.93;8.40;;;10.90;84.20;;;;;;5036435;28;20076;-73
2022/05/15 01:04:31;;;;;;;22.42;8.00;;;10.90;84.60;;;;;;5036465;28;20102;-74
2022/05/15 01:06:56;;;;;;;13.35;7.25;;;10.90;84.50;;;;;;5036202;28;20098;-75
2022/05/15 01:09:22;;;;;;;17.55;7.47;;;10.90;84.60;;;;;;5036330;28;20040;-75
2022/05/15 01:11:49;;;;;;;19.77;7.70;;;10.90;84.60;;;;;;5035668;28;20048;-75
2022/05/15 01:14:17;;;;;;;17.73;8.35;;;10.80;84.50;;;;;;5019879;28;20049;-75
2022/05/15 01:16:43;;;;;;;18.35;8.02;;;10.80;84.60;;;;;;5036018;28;20045;-75
2022/05/15 01:19:09;;;;;;;16.65;7.55;;;10.80;84.60;;;;;;5035840;28;20049;-76
2022/05/15 01:21:50;;;;;;;16.20;7.28;;;10.80;84.50;;;;;;5019543;28;20039;-75
2022/05/15 01:24:16;;;;;;;15.93;6.95;;;10.70;84.20;;;;;;5036351;28;20384;-72
2022/05/15 01:26:42;;;;;;;20.80;7.25;;;10.60;84.20;;;;;;5035833;28;20052;-73
2022/05/15 01:29:08;;;;;;;16.17;7.05;;;10.60;84.30;;;;;;5036146;28;20399;-74
2022/05/15 01:31:37;;;;;;;20.55;7.25;;;10.60;84.70;;;;;;5036057;28;20049;-75
2022/05/15 01:34:05;;;;;;;19.88;7.93;;;10.60;84.80;;;;;;5035893;28;20119;-73
2022/05/15 01:36:31;;;;;;;17.60;7.38;;;10.60;85.00;;;;;;5035716;28;20041;-74
2022/05/15 01:38:57;;;;;;;19.88;7.75;;;10.50;84.80;;;;;;5035940;28;20044;-76
2022/05/15 01:41:24;;;;;;;18.63;8.43;;;10.50;85.00;;;;;;5035698;28;20508;-74
2022/05/15 01:43:53;;;;;;;23.98;8.38;;;10.50;84.70;;;;;;5035781;28;20477;-74
2022/05/15 01:46:21;;;;;;;18.30;7.40;;;10.50;84.60;;;;;;5035687;28;20046;-76
2022/05/15 01:48:48;;;;;;;14.63;6.40;;;10.50;84.50;;;;;;5035451;28;20052;-76
2022/05/15 01:51:14;;;;;;;18.67;7.68;;;10.40;84.60;;;;;;5019269;28;20480;-74
2022/05/15 01:53:40;;;;;;;16.33;7.18;;;10.40;84.60;;;;;;5019066;28;20048;-74
2022/05/15 01:56:06;;;;;;;18.25;7.10;;;10.40;84.80;;;;;;5035557;28;20049;-75
2022/05/15 01:58:32;;;;;;;18.50;7.93;;;10.40;84.80;;;;;;5035681;28;20045;-74
2022/05/15 02:00:58;;;;;;;21.02;7.60;;;10.40;84.90;;;;;;5035538;28;20049;-75
2022/05/15 02:03:24;;;;;;;18.17;7.60;;;10.30;84.70;;;;;;5035755;28;20033;-73
2022/05/15 02:05:50;;;;;;;22.77;8.45;;;10.30;84.80;;;;;;5019080;28;20476;-74
2022/05/15 02:08:17;;;;;;;17.65;7.68;;;10.30;84.70;;;;;;5035862;28;20045;-74
2022/05/15 02:10:44;;;;;;;21.42;7.80;;;10.30;84.80;;;;;;5019008;28;20128;-75
2022/05/15 02:13:10;;;;;;;17.73;8.52;;;10.20;84.80;;;;;;5002806;28;20041;-74
2022/05/15 02:15:36;;;;;;;18.95;7.93;;;10.20;84.90;;;;;;5019018;28;20090;-74
2022/05/15 02:18:02;;;;;;;16.92;7.80;;;10.20;85.20;;;;;;5035605;28;20045;-74
2022/05/15 02:20:28;;;;;;;23.15;9.60;;;10.10;85.10;;;;;;5035381;28;20037;-76
2022/05/15 02:22:54;;;;;;;16.08;8.15;;;10.20;85.10;;;;;;5035204;28;20037;-75
2022/05/15 02:25:19;;;;;;;17.65;8.70;;;10.10;85.20;;;;;;5006621;28;20037;-74
2022/05/15 02:27:46;;;;;;;22.35;8.73;;;10.10;85.20;;;;;;5022804;28;20142;-72
2022/05/15 02:30:13;;;;;;;22.45;8.40;;;10.10;85.20;;;;;;5039378;28;20044;-74
2022/05/15 02:32:39;;;;;;;18.90;8.80;;;10.10;85.40;;;;;;5039157;28;20033;-75
2022/05/15 02:35:06;;;;;;;21.10;9.80;;;10.10;85.40;;;;;;5039295;28;20040;-73
2022/05/15 02:37:32;;;;;;;19.75;8.85;;;10.10;85.50;;;;;;5022620;28;20102;-73
2022/05/15 02:39:58;;;;;;;23.17;8.27;;;10.10;85.50;;;;;;5039000;28;20041;-73
2022/05/15 02:42:24;;;;;;;18.52;8.75;;;10.00;85.40;;;;;;5038912;28;20041;-76
2022/05/15 02:44:50;;;;;;;19.02;7.53;;;10.00;85.40;;;;;;5022138;28;20378;-73
2022/05/15 02:47:16;;;;;;;18.17;7.72;;;10.00;85.40;;;;;;5038562;28;20076;-75
2022/05/15 02:52:26;;;;;;;15.88;7.32;;;10.00;85.50;;;;;;5038928;28;20402;-74
2022/05/15 02:54:51;;;;;;;12.60;5.40;;;10.00;85.50;;;;;;5022176;28;20041;-74
2022/05/15 02:57:17;;;;;;;16.90;7.13;;;10.00;85.70;;;;;;5038652;28;20045;-74
2022/05/15 02:59:43;;;;;;;15.27;6.40;;;10.00;85.40;;;;;;5022318;28;20045;-73
2022/05/15 03:02:08;;;;;;;12.50;7.03;;;10.00;85.60;;;;;;5038538;28;20041;-74
2022/05/15 03:04:36;;;;;;;13.75;7.05;;;9.90;85.50;;;;;;5038412;28;20110;-74
2022/05/15 03:07:07;;;;;;;13.35;8.27;;;9.90;86.10;;;;;;5038532;28;20437;-74
2022/05/15 03:09:33;;;;;;;17.13;8.00;;;9.90;86.30;;;;;;5022253;28;20140;-74
2022/05/15 03:11:59;;;;;;;19.15;8.55;;;9.90;86.00;;;;;;5038380;28;20076;-73
2022/05/15 03:14:25;;;;;;;17.13;7.63;;;9.80;85.70;;;;;;5005573;28;20077;-74
2022/05/15 03:16:51;;;;;;;18.75;7.63;;;9.80;86.10;;;;;;5038048;28;20049;-74
2022/05/15 03:19:16;;;;;;;17.30;7.75;;;9.80;85.70;;;;;;5038540;28;20128;-74
2022/05/15 03:21:42;;;;;;;14.73;7.45;;;9.70;85.80;;;;;;5038576;28;20506;-73
2022/05/15 03:24:10;;;;;;;19.48;8.20;;;9.70;85.90;;;;;;5038463;28;20045;-72
2022/05/15 03:26:40;;;;;;;22.80;8.50;;;9.60;86.00;;;;;;5038072;28;20101;-75
2022/05/15 03:29:06;;;;;;;20.30;8.35;;;9.60;85.90;;;;;;5037913;28;20482;-75
2022/05/15 03:31:36;;;;;;;15.80;7.13;;;9.60;86.10;;;;;;5021219;28;20553;-74
2022/05/15 03:34:07;;;;;;;19.25;8.40;;;9.60;85.80;;;;;;5037023;28;20037;-74
2022/05/15 03:36:33;;;;;;;17.60;6.80;;;9.50;85.60;;;;;;5037201;28;20075;-74
2022/05/15 03:38:59;;;;;;;15.57;7.45;;;9.60;86.00;;;;;;5037202;28;20048;-74
2022/05/15 03:41:25;;;;;;;12.90;6.72;;;9.60;86.10;;;;;;5037776;28;20036;-73
2022/05/15 03:43:51;;;;;;;21.23;8.35;;;9.60;86.00;;;;;;5037547;28;20503;-74
2022/05/15 03:46:17;;;;;;;17.65;7.70;;;9.60;85.80;;;;;;5037496;28;20044;-75
2022/05/15 03:48:43;;;;;;;18.02;8.23;;;9.60;86.00;;;;;;5037370;28;20064;-74
2022/05/15 03:51:08;;;;;;;19.95;7.95;;;9.50;86.00;;;;;;5037381;28;20052;-73
2022/05/15 03:53:34;;;;;;;20.48;8.00;;;9.50;85.90;;;;;;5037470;28;20041;-75
2022/05/15 03:56:00;;;;;;;15.07;7.38;;;9.50;86.00;;;;;;5037271;28;20102;-73
2022/05/15 03:58:32;;;;;;;17.85;7.80;;;9.50;85.90;;;;;;5037247;28;20041;-74
2022/05/15 04:00:58;;;;;;;15.55;7.65;;;9.40;86.00;;;;;;5037581;28;20615;-74
2022/05/15 04:03:23;;;;;;;19.30;7.80;;;9.40;86.30;;;;;;5037095;28;20132;-74
2022/05/15 04:05:49;;;;;;;14.35;6.55;;;9.50;86.50;;;;;;5037446;28;20048;-75
2022/05/15 04:08:15;;;;;;;17.40;7.35;;;9.50;86.40;;;;;;5021093;28;20447;-73
2022/05/15 04:10:41;;;;;;;19.17;7.60;;;9.50;86.50;;;;;;5037371;28;20049;-74
2022/05/15 04:13:07;;;;;;;18.10;6.72;;;9.50;86.40;;;;;;5037704;28;20056;-74
2022/05/15 04:15:36;;;;;;;17.63;7.65;;;9.50;86.30;;;;;;5037421;28;20056;-74
2022/05/15 04:18:04;;;;;;;21.27;8.45;;;9.50;86.30;;;;;;5004753;28;20389;-74
2022/05/15 04:20:30;;;;;;;18.75;7.13;;;9.60;86.20;;;;;;5037314;28;20045;-75
2022/05/15 04:22:56;;;;;;;17.33;6.88;;;9.50;86.30;;;;;;5020681;28;20043;-74
2022/05/15 04:25:22;;;;;;;18.27;7.50;;;9.50;86.30;;;;;;5037065;28;20480;-74
2022/05/15 04:27:48;;;;;;;23.85;10.13;;;9.60;86.30;;;;;;5036715;28;20045;-74
2022/05/15 04:30:18;;;;;;;18.85;8.35;;;9.50;86.30;;;;;;5036781;28;20127;-74
2022/05/15 04:32:44;;;;;;;23.73;8.75;;;9.60;86.40;;;;;;5036980;28;20488;-73
2022/05/15 04:35:11;;;;;;;22.20;8.85;;;9.60;86.30;;;;;;5037023;28;20045;-74
2022/05/15 04:37:39;;;;;;;20.48;8.23;;;9.60;86.50;;;;;;5020232;28;20048;-73
2022/05/15 04:40:06;;;;;;;18.30;8.52;;;9.60;86.60;;;;;;5020562;28;20044;-72
2022/05/15 04:42:31;;;;;;;23.35;9.15;;;9.60;86.60;;;;;;5036901;28;20550;-74
2022/05/15 04:44:57;;;;;;;20.65;8.48;;;9.60;86.30;;;;;;5036759;28;20037;-75
2022/05/15 04:47:23;;;;;;;19.63;10.25;;;9.60;86.20;;;;;;5019286;28;20049;-73
2022/05/15 04:49:51;;;;;;;20.88;8.38;;;9.60;86.40;;;;;;5036800;28;20401;-75
2022/05/15 04:52:17;;;;;;;31.27;9.23;;;9.60;86.40;;;;;;5036697;28;20052;-73
2022/05/15 04:54:42;;;;;;;24.75;10.23;;;9.60;86.40;;;;;;5037037;28;20048;-75
2022/05/15 04:57:08;;;;;;;24.25;9.10;;;9.60;86.40;;;;;;5036589;28;20437;-74
2022/05/15 04:59:34;;;;;;;25.08;9.32;;;9.70;86.40;;;;;;5036808;28;20033;-75
2022/05/15 05:02:00;;;;;;;21.92;9.18;;;9.70;87.10;;;;;;5036275;28;20048;-77
2022/05/15 05:04:26;;;;;;;18.10;7.57;;;9.80;86.70;;;;;;5036320;28;20048;-74
2022/05/15 05:06:52;;;;;;;20.40;8.77;;;9.90;87.10;;;;;;5019620;28;20503;-74
2022/05/15 05:09:18;;;;;;;21.73;7.90;;;10.00;87.10;;;;;;5036088;28;20532;-78
2022/05/15 05:11:44;;;;;;;21.38;8.35;;;10.10;86.80;;;;;;5036085;28;20187;-75
2022/05/15 05:14:10;;;;;;;20.83;7.55;;;10.20;87.30;;;;;;5019959;28;20128;-75
2022/05/15 05:16:35;;;;;;;25.40;10.35;;;10.20;87.40;;;;;;5036183;28;20036;-76
2022/05/15 05:19:03;;;;;;;24.70;8.55;;;10.30;87.00;;;;;;5036100;28;20507;-76
2022/05/15 05:21:29;;;;;;;24.90;10.40;;;10.40;87.10;;;;;;5019362;28;20064;-75
2022/05/15 05:23:55;;;;;;;22.80;8.82;;;10.50;86.90;;;;;;5036185;28;20040;-74
2022/05/15 05:26:21;;;;;;;21.83;8.50;;;10.60;86.60;;;;;;5052606;28;20048;-74
2022/05/15 05:28:47;;;;;;;24.17;8.02;;;10.60;86.60;;;;;;5052660;28;20101;-75
2022/05/15 05:31:13;;;;;;;21.17;8.60;;;10.70;86.80;;;;;;5069227;28;20128;-77
2022/05/15 05:33:40;;;;;;;18.00;8.18;;;10.90;86.60;;;;;;5069164;28;20051;-75
2022/05/15 05:36:07;;;;;;;25.05;9.05;;;11.00;86.60;;;;;;5003089;28;20053;-76
2022/05/15 05:38:34;;;;;;;17.00;6.35;;;11.10;86.60;;;;;;5035827;28;20049;-75
2022/05/15 05:40:59;;;;;;;27.98;9.02;;;11.10;86.50;;;;;;5019902;28;20123;-76
2022/05/15 05:43:25;;;;;;;29.80;9.13;;;11.30;86.60;;;;;;5019686;28;20123;-74
2022/05/15 05:45:51;;;;;;;28.60;9.65;;;11.40;86.70;;;;;;5035678;28;20044;-76
2022/05/15 05:48:16;;;;;;;24.98;8.88;;;11.50;86.90;;;;;;5069020;28;20092;-75
2022/05/15 05:50:42;;;;;;;18.30;7.60;;;11.60;86.70;;;;;;5069014;28;20045;-74
2022/05/15 05:53:09;;;;;;;23.98;8.98;;;11.60;86.50;;;;;;5068996;28;20098;-75
2022/05/15 05:55:36;;;;;;;23.67;7.50;;;11.70;86.00;;;;;;5069082;28;20076;-74
2022/05/15 05:58:02;;;;;;;17.23;7.13;;;11.80;85.90;;;;;;5068950;28;20040;-75
2022/05/15 06:00:38;;;;;;;28.73;9.15;;;12.00;85.70;;;;;;5019374;28;20350;-74
2022/05/15 06:05:49;;;;;;;23.75;7.90;;;12.10;85.60;;;;;;5054670;28;20048;-76
2022/05/15 06:08:15;;;;;;;23.35;8.60;;;12.20;85.60;;;;;;5035475;28;20045;-75
2022/05/15 06:10:42;;;;;;;24.42;9.30;;;12.30;85.40;;;;;;5068988;28;20043;-74
2022/05/15 06:13:08;;;;;;;29.45;8.45;;;12.40;85.40;;;;;;5068681;28;20110;-74
2022/05/15 06:15:34;;;;;;;20.70;7.90;;;12.50;86.10;;;;;;5068830;28;20041;-77
2022/05/15 06:18:02;;;;;;;20.63;6.43;;;12.50;85.10;;;;;;5051905;28;20148;-76
2022/05/15 06:20:28;;;;;;;22.05;8.10;;;12.60;84.80;;;;;;5068904;28;20045;-77
2022/05/15 06:22:54;;;;;;;18.30;7.18;;;12.70;84.70;;;;;;5019065;28;20485;-74
2022/05/15 06:25:19;;;;;;;19.77;6.15;;;12.70;84.40;;;;;;5068335;28;20052;-76
2022/05/15 06:27:45;;;;;;;25.23;7.65;;;12.90;84.10;;;;;;5068489;28;20047;-77
2022/05/15 06:30:12;;;;;;;25.55;7.43;;;12.90;83.80;;;;;;5002618;28;20084;-75
2022/05/15 06:32:39;;;;;;;22.48;7.50;;;13.00;83.60;;;;;;5019064;28;20056;-78
2022/05/15 06:35:10;;;;;;;23.60;7.88;;;13.00;83.00;;;;;;5068484;28;20055;-75
2022/05/15 06:37:36;;;;;;;23.45;6.85;;;13.10;82.90;;;;;;5068436;28;20045;-75
2022/05/15 06:40:02;;;;;;;24.30;8.00;;;13.20;82.90;;;;;;5068443;28;20048;-74
2022/05/15 06:42:29;;;;;;;23.63;8.07;;;13.30;82.60;;;;;;5018763;28;20045;-74
2022/05/15 06:44:55;;;;;;;17.88;6.95;;;13.40;82.60;;;;;;5068472;28;20045;-74
2022/05/15 06:47:23;;;;;;;25.77;7.85;;;13.50;82.40;;;;;;5034837;28;20045;-75
2022/05/15 06:49:49;;;;;;;16.63;6.35;;;13.60;82.40;;;;;;5018539;28;20102;-72
2022/05/15 06:52:16;;;;;;;27.27;8.05;;;13.60;82.00;;;;;;5068297;28;20072;-72
2022/05/15 06:54:42;;;;;;;17.95;6.78;;;13.80;81.80;;;;;;5068272;28;20048;-74
2022/05/15 06:59:51;;;;;;;25.27;6.45;;;14.00;81.60;;;;;;5068402;28;20106;-75
2022/05/15 07:02:17;;;;;;;21.92;7.25;;;14.00;81.40;;;;;;5068377;28;20435;-75
2022/05/15 07:04:43;;;;;;;20.02;7.15;;;14.20;81.10;;;;;;5001922;28;20052;-75
2022/05/15 07:07:09;;;;;;;18.13;6.63;;;14.20;80.80;;;;;;5068146;28;20040;-74
2022/05/15 07:09:36;;;;;;;19.77;6.43;;;14.40;80.70;;;;;;5019220;28;20047;-74
2022/05/15 07:12:03;;;;;;;20.95;6.93;;;14.50;80.40;;;;;;5071648;28;20049;-76
2022/05/15 07:14:29;;;;;;;19.15;5.80;;;14.50;80.10;;;;;;5071317;28;20055;-75
2022/05/15 07:16:55;;;;;;;18.58;6.82;;;14.70;80.00;;;;;;5071521;28;20037;-75
2022/05/15 07:19:20;;;;;;;17.55;5.63;;;14.70;79.50;;;;;;5071328;28;20635;-73
2022/05/15 07:21:46;;;;;;;16.60;5.80;;;14.80;79.40;;;;;;5071342;28;20064;-75
2022/05/15 07:24:12;;;;;;;18.27;6.53;;;15.00;78.90;;;;;;5054787;28;20044;-75
2022/05/15 07:26:44;;;;;;;15.93;5.85;;;15.00;78.20;;;;;;5071163;28;20507;-73
2022/05/15 07:29:09;;;;;;;18.63;6.78;;;15.20;77.90;;;;;;5038678;28;20049;-74
2022/05/15 07:31:35;;;;;;;15.27;6.55;;;15.30;77.70;;;;;;5071289;28;20045;-74
2022/05/15 07:34:01;;;;;;;15.50;5.45;;;15.40;77.60;;;;;;5037966;28;20530;-76
2022/05/15 07:36:26;;;;;;;18.08;5.85;;;15.50;77.40;;;;;;5021332;28;20555;-76
2022/05/15 07:38:52;;;;;;;18.80;7.15;;;15.70;77.10;;;;;;5021297;28;20461;-76
2022/05/15 07:41:18;;;;;;;19.48;5.32;;;15.80;76.40;;;;;;5070907;28;20354;-74
2022/05/15 07:43:44;;;;;;;24.10;6.53;;;15.90;76.00;;;;;;5070745;28;20041;-75
2022/05/15 07:46:09;;;;;;;18.23;6.20;;;16.00;75.80;;;;;;5071023;28;20048;-74
2022/05/15 07:48:35;;;;;;;14.52;4.55;;;16.10;74.50;;;;;;5070503;28;20084;-75
2022/05/15 07:51:01;;;;;;;18.65;5.35;;;16.20;75.20;;;;;;5070777;28;20076;-74
2022/05/15 07:53:26;;;;;;;18.95;6.32;;;16.40;74.40;;;;;;5037222;28;20051;-74
2022/05/15 07:55:55;;;;;;;13.63;4.88;;;16.40;73.90;;;;;;5021033;28;20037;-73
2022/05/15 07:58:20;;;;;;;16.35;5.70;;;16.50;73.20;;;;;;5020761;28;20480;-76
2022/05/15 08:00:46;;;;;;;16.42;5.18;;;16.60;73.20;;;;;;5021016;28;20044;-75
2022/05/15 08:03:13;;;;;;;19.23;6.15;;;16.70;72.70;;;;;;5020963;28;20060;-75
2022/05/15 08:08:24;;;;;;;20.50;5.57;;;16.90;71.50;;;;;;5070431;28;20072;-75
2022/05/15 08:10:50;;;;;;;15.85;5.60;;;17.00;71.20;;;;;;5021075;28;20041;-78
2022/05/15 08:13:20;;;;;;;15.93;5.07;;;17.20;70.50;;;;;;5070710;28;20050;-74
2022/05/15 08:15:46;;;;;;;15.90;5.75;;;17.30;70.40;;;;;;5070690;28;20036;-76
2022/05/15 08:23:53;;;;;;;17.23;5.78;;;17.50;67.40;;;;;;5070781;28;20075;-75
2022/05/15 08:26:19;;;;;;;17.15;6.07;;;17.70;67.40;;;;;;5070546;28;20045;-77
2022/05/15 08:28:46;;;;;;;14.80;5.82;;;17.80;68.10;;;;;;5036901;28;20048;-76
2022/05/15 08:31:13;;;;;;;16.65;5.57;;;18.00;67.80;;;;;;5070641;28;20063;-75
2022/05/15 08:33:39;;;;;;;19.88;6.20;;;18.00;66.50;;;;;;5070301;28;20044;-76
2022/05/15 08:36:07;;;;;;;15.68;4.65;;;18.20;66.60;;;;;;5070263;28;20518;-76
2022/05/15 08:38:34;;;;;;;18.90;5.50;;;18.30;66.30;;;;;;5020591;28;20129;-78
2022/05/15 08:41:33;;;;;;;17.25;5.15;;;18.40;66.10;;;;;;5020181;28;20036;-75
2022/05/15 08:44:12;;;;;;;16.63;5.10;;;18.50;64.70;;;;;;5036795;28;20516;-74
2022/05/15 08:46:49;;;;;;;15.00;4.80;;;18.50;62.20;;;;;;5022810;28;20049;-77
2022/05/15 08:49:24;;;;;;;16.30;4.97;;;18.50;62.40;;;;;;5049679;28;20564;-76
2022/05/15 08:51:59;;;;;;;15.23;5.60;;;18.60;60.60;;;;;;5033235;28;20046;-76
2022/05/15 08:54:26;;;;;;;14.48;5.90;;;18.70;61.50;;;;;;5033367;28;20042;-77
2022/05/15 08:56:53;;;;;;;18.23;5.32;;;18.80;62.50;;;;;;5033224;28;20057;-78
2022/05/15 08:59:30;;;;;;;18.20;5.55;;;18.90;62.30;;;;;;5033274;28;20049;-76
2022/05/15 09:01:59;;;;;;;13.60;5.60;;;19.00;60.90;;;;;;5066638;28;20220;-75
2022/05/15 09:04:26;;;;;;;19.58;5.05;;;19.10;58.70;;;;;;5033159;28;20044;-76
2022/05/15 09:07:09;;;;;;;18.30;5.43;;;19.20;60.40;;;;;;5033029;28;20569;-78
2022/05/15 09:09:45;;;;;;;20.58;5.53;;;19.20;60.10;;;;;;5033360;28;20041;-76
2022/05/15 09:12:22;;;;;;;17.55;5.50;;;19.30;60.00;;;;;;5032864;28;20048;-75
2022/05/15 09:15:11;;;;;;;17.27;6.10;;;19.50;59.30;;;;;;5032795;28;20068;-77
2022/05/15 09:17:42;;;;;;;17.13;4.93;;;19.60;60.30;;;;;;5033036;28;20102;-78
2022/05/15 09:20:19;;;;;;;13.75;4.80;;;19.80;60.10;;;;;;5032979;28;20073;-77
2022/05/15 09:22:54;;;;;;;18.00;5.38;;;19.90;60.20;;;;;;5032903;28;20065;-77
2022/05/15 09:25:23;;;;;;;18.80;6.15;;;20.00;59.70;;;;;;5066251;28;20121;-77
2022/05/15 09:28:05;;;;;;;14.98;4.82;;;20.20;59.70;;;;;;5049383;28;20083;-78
2022/05/15 09:30:46;;;;;;;15.65;5.05;;;20.30;58.50;;;;;;5033051;28;20063;-77
2022/05/15 09:33:23;;;;;;;14.65;4.78;;;20.40;57.20;;;;;;5032010;28;20037;-78
2022/05/15 09:35:50;;;;;;;16.65;4.65;;;20.40;56.40;;;;;;5032662;28;20040;-77
2022/05/15 09:38:28;;;;;;;15.75;5.55;;;20.50;57.00;;;;;;5032445;28;20045;-77
2022/05/15 09:43:56;;;;;;;11.93;5.15;;;20.70;54.90;;;;;;5032602;28;20429;-76
2022/05/15 09:46:25;;;;;;;18.25;5.13;;;20.80;53.50;;;;;;5032155;28;20041;-77
2022/05/15 09:49:15;;;;;;;17.20;5.95;;;20.50;55.00;;;;;;5065269;28;20132;-75
2022/05/15 09:51:52;;;;;;;15.20;5.32;;;20.80;56.20;;;;;;5032131;28;20045;-76
2022/05/15 09:54:43;;;;;;;18.10;5.82;;;20.90;55.30;;;;;;5065539;28;20053;-78
2022/05/15 09:57:15;;;;;;;15.63;5.00;;;21.10;54.80;;;;;;5032319;28;20045;-76
2022/05/15 09:59:43;;;;;;;21.27;5.25;;;21.20;55.30;;;;;;5016076;28;20500;-76
2022/05/15 10:02:21;;;;;;;19.48;5.22;;;21.40;55.10;;;;;;5065548;28;20044;-79
2022/05/15 10:04:50;;;;;;;13.70;4.80;;;21.50;55.10;;;;;;5065647;28;20055;-78
2022/05/15 10:07:44;;;;;;;15.02;4.68;;;21.60;54.90;;;;;;5031990;28;20041;-76
2022/05/15 10:10:19;;;;;;;17.15;5.90;;;21.80;52.00;;;;;;5031987;28;20041;-77
2022/05/15 10:12:47;;;;;;;14.52;5.03;;;21.80;53.00;;;;;;5032517;28;20041;-76
2022/05/15 10:15:15;;;;;;;16.25;5.18;;;21.80;53.80;;;;;;5032135;28;20048;-77
2022/05/15 10:17:58;;;;;;;21.33;5.28;;;21.90;53.30;;;;;;5065175;28;20436;-75
2022/05/15 10:20:34;;;;;;;14.82;4.38;;;22.00;54.10;;;;;;5029352;28;20367;-76
2022/05/15 10:23:14;;;;;;;15.48;4.70;;;22.10;53.30;;;;;;5031707;28;20046;-76
2022/05/15 10:25:42;;;;;;;18.23;5.00;;;22.10;52.60;;;;;;5046094;28;20041;-75
2022/05/15 10:28:38;;;;;;;16.40;5.60;;;22.10;52.80;;;;;;5032073;28;20037;-75
2022/05/15 10:31:16;;;;;;;14.55;4.85;;;22.30;51.30;;;;;;5031937;28;20593;-76
2022/05/15 10:33:46;;;;;;;20.42;5.85;;;22.40;52.50;;;;;;5015488;28;20121;-76
2022/05/15 10:36:24;;;;;;;15.40;4.75;;;22.50;52.80;;;;;;5031530;28;20124;-76
2022/05/15 10:39:04;;;;;;;19.17;6.05;;;22.70;52.10;;;;;;5014950;28;20073;-79
2022/05/15 10:41:49;;;;;;;12.20;4.28;;;22.70;52.80;;;;;;5031686;28;20037;-78
2022/05/15 10:44:29;;;;;;;17.90;5.55;;;22.90;50.70;;;;;;5032404;28;20042;-79
2022/05/15 10:47:00;;;;;;;14.82;5.93;;;22.90;49.00;;;;;;5035639;28;20045;-79
2022/05/15 10:49:31;;;;;;;17.90;5.38;;;22.90;49.90;;;;;;5035336;28;20409;-80
2022/05/15 10:52:09;;;;;;;18.73;5.38;;;23.00;50.30;;;;;;5018992;28;20045;-80
2022/05/15 10:57:55;;;;;;;19.73;5.28;;;23.30;50.30;;;;;;5035418;28;20060;-80
2022/05/15 11:00:42;;;;;;;16.08;5.20;;;23.30;50.20;;;;;;5035587;28;20037;-80
2022/05/15 11:03:14;;;;;;;16.05;4.57;;;23.40;47.20;;;;;;5035327;28;20051;-77
2022/05/15 11:05:58;;;;;;;13.75;4.93;;;23.60;49.90;;;;;;5035468;28;20385;-78
2022/05/15 11:08:46;;;;;;;15.20;5.32;;;23.70;50.00;;;;;;5035381;28;20041;-75
2022/05/15 11:11:39;;;;;;;15.77;4.72;;;23.60;49.20;;;;;;5035426;28;20045;-81
2022/05/15 11:14:24;;;;;;;14.60;5.07;;;23.70;49.00;;;;;;5035436;28;20042;-79
2022/05/15 11:17:29;;;;;;;14.75;5.40;;;23.80;49.00;;;;;;5034858;28;20409;-78
2022/05/15 11:19:57;;;;;;;;;;;23.80;48.80;;;;;;5005498;28;20056;-79
2022/05/15 11:22:41;;;;;;;12.57;4.07;;;23.80;49.30;;;;;;5034886;28;20288;-76
2022/05/15 11:25:28;;;;;;;16.77;6.03;;;23.70;48.70;;;;;;5033039;28;20060;-77
2022/05/15 11:28:10;;;;;;;20.50;5.65;;;23.60;47.50;;;;;;5033504;28;20437;-79
2022/05/15 11:30:40;;;;;;;15.30;4.47;;;23.50;48.90;;;;;;5032221;28;20042;-78
2022/05/15 11:33:23;;;;;;;16.77;4.63;;;23.40;48.60;;;;;;5018465;28;20048;-76
2022/05/15 11:36:09;;;;;;;19.27;5.53;;;23.60;48.30;;;;;;5034652;28;20103;-77
2022/05/15 11:39:13;;;;;;;14.50;4.95;;;23.70;46.20;;;;;;5034803;28;20354;-78
2022/05/15 11:42:10;;;;;;;14.10;4.47;;;23.90;48.30;;;;;;5018015;28;20091;-78
2022/05/15 11:44:37;;;;;;;15.25;4.30;;;23.90;47.20;;;;;;5034533;28;20473;-76
2022/05/15 11:47:29;;;;;;;17.50;5.70;;;23.90;47.60;;;;;;5034621;28;20037;-78
2022/05/15 11:50:10;;;;;;;13.65;4.25;;;23.90;45.40;;;;;;5034553;28;20049;-76
2022/05/15 11:52:40;;;;;;;16.73;5.30;;;24.10;45.70;;;;;;5034860;28;20063;-79
2022/05/15 11:55:45;;;;;;;14.85;5.13;;;24.20;47.30;;;;;;5034108;28;20501;-78
2022/05/15 11:58:20;;;;;;;15.65;6.30;;;24.40;47.40;;;;;;5034424;28;20124;-77
2022/05/15 12:01:21;;;;;;;18.08;6.00;;;24.60;47.50;;;;;;5034653;28;20088;-78
2022/05/15 12:03:54;;;;;;;11.82;4.30;;;24.90;46.80;;;;;;5006767;28;20128;-77
2022/05/15 12:06:48;;;;;;;12.95;4.38;;;25.00;46.20;;;;;;5034197;28;20041;-77
2022/05/15 12:09:16;;;;;;;12.05;4.63;;;25.10;45.40;;;;;;5028143;28;20046;-79
2022/05/15 12:11:51;;;;;;;13.18;4.43;;;25.20;45.00;;;;;;5017706;28;20184;-76
2022/05/15 12:14:22;;;;;;;15.07;4.63;;;25.20;43.70;;;;;;5033426;28;20060;-77
2022/05/15 12:17:25;;;;;;;10.35;4.65;;;25.40;44.40;;;;;;5039879;28;20064;-79
2022/05/15 12:19:59;;;;;;;14.73;5.68;;;25.40;43.10;;;;;;5031874;28;20044;-78
2022/05/15 12:22:25;;;;;;;11.18;4.50;;;25.40;43.90;;;;;;5044681;28;20043;-78
2022/05/15 12:24:50;;;;;;;12.05;5.05;;;25.50;44.60;;;;;;5024656;28;20033;-76
2022/05/15 12:27:21;;;;;;;11.77;4.72;;;25.60;44.60;;;;;;5033546;28;20052;-78
2022/05/15 12:30:02;;;;;;;17.08;5.60;;;25.70;43.60;;;;;;5033689;28;20050;-75
2022/05/15 12:32:50;;;;;;;17.30;4.82;;;25.60;40.80;;;;;;5033758;28;20046;-78
2022/05/15 12:35:36;;;;;;;18.42;5.97;;;25.40;41.50;;;;;;5017319;28;20143;-77
2022/05/15 12:38:13;;;;;;;11.38;4.18;;;25.60;41.90;;;;;;5016915;28;20505;-78
2022/05/15 12:41:00;;;;;;;13.93;5.18;;;25.70;42.50;;;;;;5033541;28;20045;-77
2022/05/15 12:43:32;;;;;;;11.88;5.10;;;25.90;43.40;;;;;;5033412;28;20045;-79
2022/05/15 12:45:58;;;;;;;17.38;5.22;;;25.90;41.50;;;;;;5033762;28;20045;-78
2022/05/15 12:48:25;;;;;;;15.15;4.18;;;26.00;41.30;;;;;;5032796;28;20459;-78
2022/05/15 12:51:05;;;;;;;13.25;3.80;;;26.10;41.60;;;;;;5058089;28;20056;-77
2022/05/15 12:53:42;;;;;;;10.13;4.13;;;26.10;39.40;;;;;;5036718;28;20550;-78
2022/05/15 12:56:30;;;;;;;11.65;4.07;;;26.10;41.50;;;;;;5043610;28;20100;-76
2022/05/15 12:59:07;;;;;;;10.02;4.13;;;26.40;40.20;;;;;;5044023;28;20037;-78
2022/05/15 13:01:33;;;;;;;10.38;3.78;;;26.40;41.20;;;;;;5027426;28;20048;-77
2022/05/15 13:04:02;;;;;;;20.08;4.93;;;26.40;41.20;;;;;;5039457;28;20096;-76
2022/05/15 13:06:32;;;;;;;13.30;4.20;;;26.40;41.10;;;;;;5041254;28;20055;-79
2022/05/15 13:09:04;;;;;;;10.75;5.07;;;26.50;39.90;;;;;;5045197;28;20079;-79
2022/05/15 13:11:43;;;;;;;11.73;3.92;;;26.40;39.90;;;;;;5037434;28;20045;-77
2022/05/15 13:14:19;;;;;;;16.33;7.55;;;26.40;39.40;;;;;;5038063;28;20072;-78
2022/05/15 13:16:51;;;;;;;16.25;6.13;;;26.40;40.60;;;;;;5033022;28;20505;-77
2022/05/15 13:19:25;;;;;;;14.75;5.15;;;26.50;40.30;;;;;;5032892;28;20041;-76